Point Mugu, California
Current Conditions -  °F | °C
As of 6:56 PM on Monday 26 Jan 2015 (Local Time) from KNTD Reporting Station
Overcast Overcast  
Wind Chill: 63°   Ceiling: 6500
Heat Index: 63°   Visibility: 10mi
Dew Point: 53°   Wind: 7mph
Humidity: 70%   Direction: 40°NE
Pressure: 30.06"   Gusts: NA
Location:  34.12°N, 119.12°W
Report Text: KNTD 270256Z 04006KT 10SM FEW050 OVC065 17/12 A3006 RMK AO2 RAE05 SLP180 P0000 60000 T01720117 51016 $
Loading
Personal Weather Stations






























Interactive Weather Map New forecast layout! Learn more

10-Day Weather Forecast

Advertisements
Track Severe Weather on mobile